Pagina principale
METAR-TAF:

METAR-TAF

Aeroporti :

Aeroporto di Ouagadougou

Ouagadougou, Burkina Faso

latitudine: 12-21N, longitudine: 001-31W, altezza: 316 m

Osservazione

Il bollettino è stato emesso 1 ora e 14 minuti fa, alle 01:00 UTC
Vento 1 kt da direzioni variabili
Temperature 24°C
Umidità 65%
Pressione 1012 hPa
Visibilità: 6000 m

METAR: DFFD 250100Z VRB01KT 6000 NSC 24/17 Q1012 NOSIG

Ora: 02:14 (02:14 UTC)

Previsione

Il bollettino è stato emesso 3 ore e 14 minuti fa, alle 23:00 UTC
Previsione valida dal 25 alle 00 UTC al 26 alle 06 UTC
Vento 8 kt da est/sud-est
Visibilità: 8000 m
Temporaneamente
dal 25 alle 06 UTC al 25 alle 10 UTC
Visibilità: 3500 m
polvere diffusa

TAF: DFFD 242300Z 2500/2606 12008KT 8000 NSC TEMPO 2506/2510 3500 DU

Osservazioni e previsioni meteorologiche di più di 4000 aeroporti (messaggi METAR e TAF).

Le stazioni disponibili sono rappresentate dai dischi gialli e rossi sulla carta.

Puntare il mouse per vedere il nome della stazione.

Clicca sopra per visualizzare le osservazioni e previsioni meteorologiche.

Per cambiare la mappa : fare clic sui pulsanti verdi con una croce nera per ingrandire, il pulsante verde con un trattino per diminuire, o sulla freccia verde per le mappe adiacenti.


METAR-TAF: